Time;durP1;ratioP1;P1;durP2;ratioP2;P2;SDS_P1;SDS_P2;PMS_P1;PMS_P2;Temp;Humidity;BMP_temperature;BMP_pressure;BME280_temperature;BME280_humidity;BME280_pressure;Samples;Min_cycle;Max_cycle;Signal;HPM_P1;HPM_P2
2022/09/03 00:04:22;;;;;;;;;;;;;;;18.61;44.1748;101251.3;;;;-75
2022/09/03 00:09:22;;;;;;;;;;;;;;;18.55;44.4541;101250.5;;;;-74
2022/09/03 00:09:53;;;;;;;5;1.9;;;;;;;;;;;;;-75
2022/09/03 00:14:22;;;;;;;;;;;;;;;18.49;44.25391;101246.1;;;;-75
2022/09/03 00:19:20;;;;;;;;;;;;;;;18.42;44.30371;101239.5;;;;-75
2022/09/03 00:24:20;;;;;;;;;;;;;;;18.37;44.38965;101232.5;;;;-75
2022/09/03 00:29:19;;;;;;;;;;;;;;;18.28;44.5293;101238.1;;;;-75
2022/09/03 00:34:20;;;;;;;;;;;;;;;18.24;44.49023;101235.1;;;;-75
2022/09/03 00:39:18;;;;;;;;;;;;;;;18.18;44.61035;101237.8;;;;-74
2022/09/03 00:39:51;;;;;;;3.5;2;;;;;;;;;;;;;-75
2022/09/03 00:44:28;;;;;;;;;;;;;;;18.11;44.65918;101231.7;;;;-75
2022/09/03 00:49:37;;;;;;;;;;;;;;;18.11;44.5918;101234.2;;;;-76
2022/09/03 00:54:21;;;;;;;;;;;;;;;18.06;44.79102;101234;;;;-76
2022/09/03 00:59:25;;;;;;;;;;;;;;;17.99;44.61328;101231;;;;-74
2022/09/03 01:04:25;;;;;;;;;;;;;;;17.94;45.01855;101235.2;;;;-76
2022/09/03 01:09:29;;;;;;;;;;;;;;;17.88;44.72754;101235.3;;;;-75
2022/09/03 01:10:00;;;;;;;3.8;1.9;;;;;;;;;;;;;-75
2022/09/03 01:14:23;;;;;;;;;;;;;;;17.83;45.14355;101235.5;;;;-75
2022/09/03 01:19:29;;;;;;;;;;;;;;;17.79;45.01465;101236.7;;;;-75
2022/09/03 01:24:31;;;;;;;;;;;;;;;17.77;45.06934;101236.9;;;;-75
2022/09/03 01:29:23;;;;;;;;;;;;;;;17.69;45.27637;101241.5;;;;-74
2022/09/03 01:34:23;;;;;;;;;;;;;;;17.66;45.48926;101246.2;;;;-74
2022/09/03 01:39:21;;;;;;;;;;;;;;;17.61;45.37109;101243.9;;;;-75
2022/09/03 01:40:03;;;;;;;2.8;1.8;;;;;;;;;;;;;-75
2022/09/03 01:44:22;;;;;;;;;;;;;;;17.59;45.70801;101242.3;;;;-75
2022/09/03 01:49:23;;;;;;;;;;;;;;;17.54;45.76172;101234.2;;;;-75
2022/09/03 01:54:28;;;;;;;;;;;;;;;17.5;45.92773;101235.1;;;;-76
2022/09/03 01:59:20;;;;;;;;;;;;;;;17.48;46.14063;101240.8;;;;-75
2022/09/03 02:04:24;;;;;;;;;;;;;;;17.42;46.45313;101235.3;;;;-76
2022/09/03 02:09:17;;;;;;;;;;;;;;;17.41;46.32715;101235.9;;;;-75
2022/09/03 02:09:57;;;;;;;4.5;1.9;;;;;;;;;;;;;-76
2022/09/03 02:14:17;;;;;;;;;;;;;;;17.37;46.3457;101233;;;;-74
2022/09/03 02:19:18;;;;;;;;;;;;;;;17.33;46.72754;101237.4;;;;-75
2022/09/03 02:24:17;;;;;;;;;;;;;;;17.31;46.53125;101230.4;;;;-76
2022/09/03 02:29:18;;;;;;;;;;;;;;;17.28;46.29004;101229.5;;;;-75
2022/09/03 02:34:17;;;;;;;;;;;;;;;17.23;46.43262;101224.7;;;;-76
2022/09/03 02:39:18;;;;;;;;;;;;;;;17.18;46.75781;101222.6;;;;-75
2022/09/03 02:39:59;;;;;;;3.2;1.9;;;;;;;;;;;;;-74
2022/09/03 02:44:24;;;;;;;;;;;;;;;17.12;46.52344;101214.2;;;;-74
2022/09/03 02:49:17;;;;;;;;;;;;;;;17.11;46.47656;101212;;;;-75
2022/09/03 02:54:17;;;;;;;;;;;;;;;17.07;46.25684;101214.4;;;;-76
2022/09/03 02:59:17;;;;;;;;;;;;;;;17.04;46.41211;101206.8;;;;-73
2022/09/03 03:04:17;;;;;;;;;;;;;;;17.01;46.26172;101208.4;;;;-74
2022/09/03 03:09:17;;;;;;;;;;;;;;;16.97;46.54199;101206.1;;;;-75
2022/09/03 03:10:01;;;;;;;4.7;2.2;;;;;;;;;;;;;-75
2022/09/03 03:14:17;;;;;;;;;;;;;;;16.93;46.2998;101214.7;;;;-75
2022/09/03 03:19:17;;;;;;;;;;;;;;;16.88;46.4873;101212.4;;;;-76
2022/09/03 03:24:17;;;;;;;;;;;;;;;16.84;46.7207;101214.9;;;;-76
2022/09/03 03:29:20;;;;;;;;;;;;;;;16.79;46.61328;101212.1;;;;-75
2022/09/03 03:34:17;;;;;;;;;;;;;;;16.76;46.70117;101216.5;;;;-75
2022/09/03 03:39:17;;;;;;;;;;;;;;;16.73;46.62988;101220.4;;;;-75
2022/09/03 03:40:03;;;;;;;5.4;2.7;;;;;;;;;;;;;-75
2022/09/03 03:44:19;;;;;;;;;;;;;;;16.69;46.53418;101221.3;;;;-75
2022/09/03 03:49:17;;;;;;;;;;;;;;;16.65;46.68945;101218.1;;;;-75
2022/09/03 03:54:18;;;;;;;;;;;;;;;16.62;47.08301;101215.2;;;;-75
2022/09/03 03:59:17;;;;;;;;;;;;;;;16.59;46.58105;101214.7;;;;-77
2022/09/03 04:04:17;;;;;;;;;;;;;;;16.54;46.8252;101213.4;;;;-74
2022/09/03 04:09:17;;;;;;;;;;;;;;;16.5;46.94531;101210.8;;;;-76
2022/09/03 04:10:05;;;;;;;3.3;2;;;;;;;;;;;;;-76
2022/09/03 04:14:17;;;;;;;;;;;;;;;16.47;47.27051;101209.6;;;;-75
2022/09/03 04:19:17;;;;;;;;;;;;;;;16.43;46.96094;101205.1;;;;-75
2022/09/03 04:24:17;;;;;;;;;;;;;;;16.4;47.09375;101209;;;;-76
2022/09/03 04:29:17;;;;;;;;;;;;;;;16.36;47.21387;101207.3;;;;-75
2022/09/03 04:34:17;;;;;;;;;;;;;;;16.34;47.07422;101211.1;;;;-75
2022/09/03 04:39:17;;;;;;;;;;;;;;;16.3;47.27539;101205;;;;-75
2022/09/03 04:40:07;;;;;;;3.7;2;;;;;;;;;;;;;-76
2022/09/03 04:44:17;;;;;;;;;;;;;;;16.25;47.20215;101204.5;;;;-76
2022/09/03 04:49:18;;;;;;;;;;;;;;;16.25;47.23535;101203.1;;;;-75
2022/09/03 04:54:17;;;;;;;;;;;;;;;16.22;47.18652;101202.6;;;;-75
2022/09/03 04:59:17;;;;;;;;;;;;;;;16.19;47.4668;101201.3;;;;-75
2022/09/03 05:04:18;;;;;;;;;;;;;;;16.14;47.5752;101199.8;;;;-76
2022/09/03 05:09:17;;;;;;;;;;;;;;;16.15;47.48633;101201.8;;;;-76
2022/09/03 05:10:11;;;;;;;3;1.8;;;;;;;;;;;;;-75
2022/09/03 05:14:17;;;;;;;;;;;;;;;16.13;47.4043;101199.1;;;;-76
2022/09/03 05:19:17;;;;;;;;;;;;;;;16.12;47.36816;101204;;;;-75
2022/09/03 05:24:17;;;;;;;;;;;;;;;16.08;47.4668;101204.6;;;;-75
2022/09/03 05:29:18;;;;;;;;;;;;;;;16.08;47.37695;101211.2;;;;-76
2022/09/03 05:34:17;;;;;;;;;;;;;;;16.08;47.40918;101209.2;;;;-74
2022/09/03 05:39:17;;;;;;;;;;;;;;;16.07;47.3291;101212.8;;;;-76
2022/09/03 05:40:11;;;;;;;3.1;1.7;;;;;;;;;;;;;-74
2022/09/03 05:44:17;;;;;;;;;;;;;;;16.11;47.21973;101210.5;;;;-76
2022/09/03 05:49:17;;;;;;;;;;;;;;;16.11;48.125;101212.2;;;;-74
2022/09/03 05:54:17;;;;;;;;;;;;;;;16.11;47.77539;101205;;;;-74
2022/09/03 05:59:18;;;;;;;;;;;;;;;16.25;47.96094;101204.4;;;;-76
2022/09/03 06:04:18;;;;;;;;;;;;;;;16.6;47.55566;101202.2;;;;-75
2022/09/03 06:09:18;;;;;;;;;;;;;;;16.98;46.79199;101198;;;;-75
2022/09/03 06:10:12;;;;;;;2.5;1.5;;;;;;;;;;;;;-76
2022/09/03 06:14:17;;;;;;;;;;;;;;;17.35;45.93457;101198.2;;;;-76
2022/09/03 06:19:17;;;;;;;;;;;;;;;17.69;45.34473;101201.1;;;;-74
2022/09/03 06:24:18;;;;;;;;;;;;;;;17.99;45.05664;101211.2;;;;-75
2022/09/03 06:29:19;;;;;;;;;;;;;;;18.25;44.62891;101201.5;;;;-76
2022/09/03 06:34:17;;;;;;;;;;;;;;;18.51;44.29004;101209.7;;;;-75
2022/09/03 06:39:17;;;;;;;;;;;;;;;18.76;43.9502;101210.1;;;;-75
2022/09/03 06:40:19;;;;;;;3.4;1.4;;;;;;;;;;;;;-76
2022/09/03 06:44:17;;;;;;;;;;;;;;;19;43.46094;101209.3;;;;-74
2022/09/03 06:49:18;;;;;;;;;;;;;;;19.23;43.25586;101217.2;;;;-75
2022/09/03 06:54:17;;;;;;;;;;;;;;;19.42;42.97754;101218.3;;;;-75
2022/09/03 06:59:18;;;;;;;;;;;;;;;19.62;42.63184;101212.1;;;;-76
2022/09/03 07:04:20;;;;;;;;;;;;;;;19.83;42.42188;101217;;;;-74
2022/09/03 07:09:17;;;;;;;;;;;;;;;20.03;42.15625;101220.3;;;;-76
2022/09/03 07:10:19;;;;;;;2.6;1.3;;;;;;;;;;;;;-74
2022/09/03 07:14:17;;;;;;;;;;;;;;;20.25;41.93555;101226.2;;;;-75
2022/09/03 07:19:17;;;;;;;;;;;;;;;20.41;41.6543;101227.4;;;;-76
2022/09/03 07:24:17;;;;;;;;;;;;;;;20.61;41.55762;101228.9;;;;-75
2022/09/03 07:29:18;;;;;;;;;;;;;;;20.82;41.37109;101227.5;;;;-75
2022/09/03 07:34:22;;;;;;;;;;;;;;;21.03;41.15039;101224.2;;;;-77
2022/09/03 07:39:17;;;;;;;;;;;;;;;21.32;40.85547;101227;;;;-75
2022/09/03 07:40:18;;;;;;;2.2;1.3;;;;;;;;;;;;;-74
2022/09/03 07:44:18;;;;;;;;;;;;;;;21.62;40.59668;101226.6;;;;-76
2022/09/03 07:49:17;;;;;;;;;;;;;;;21.9;40.4834;101231.2;;;;-75
2022/09/03 07:54:17;;;;;;;;;;;;;;;22.26;40.02246;101227.7;;;;-74
2022/09/03 07:59:18;;;;;;;;;;;;;;;22.57;39.75;101230.6;;;;-74
2022/09/03 08:04:17;;;;;;;;;;;;;;;22.94;39.35742;101232.9;;;;-73
2022/09/03 08:09:17;;;;;;;;;;;;;;;23.25;38.94727;101229.3;;;;-74
2022/09/03 08:10:21;;;;;;;2.4;1.3;;;;;;;;;;;;;-75
2022/09/03 08:14:17;;;;;;;;;;;;;;;23.57;38.54688;101227.7;;;;-74
2022/09/03 08:19:19;;;;;;;;;;;;;;;23.94;37.9668;101230.3;;;;-74
2022/09/03 08:24:19;;;;;;;;;;;;;;;24.15;37.71875;101235;;;;-75
2022/09/03 08:29:17;;;;;;;;;;;;;;;24.36;37.2627;101239.1;;;;-74
2022/09/03 08:34:17;;;;;;;;;;;;;;;24.63;36.93848;101241.1;;;;-75
2022/09/03 08:39:17;;;;;;;;;;;;;;;24.91;36.50879;101248.8;;;;-74
2022/09/03 08:40:24;;;;;;;2.6;1.3;;;;;;;;;;;;;-75
2022/09/03 08:44:22;;;;;;;;;;;;;;;25.22;36.20996;101251.2;;;;-76
2022/09/03 08:49:19;;;;;;;;;;;;;;;25.54;35.83008;101252.7;;;;-77
2022/09/03 08:54:18;;;;;;;;;;;;;;;25.85;35.37891;101247;;;;-76
2022/09/03 08:59:17;;;;;;;;;;;;;;;26.11;35.07422;101245.2;;;;-75
2022/09/03 09:04:23;;;;;;;;;;;;;;;26.36;34.84961;101247.8;;;;-76
2022/09/03 09:09:24;;;;;;;;;;;;;;;26.56;34.70215;101243.3;;;;-75
2022/09/03 09:10:31;;;;;;;2.4;1.2;;;;;;;;;;;;;-76
2022/09/03 09:14:22;;;;;;;;;;;;;;;26.75;34.49609;101246.5;;;;-76
2022/09/03 09:19:23;;;;;;;;;;;;;;;27.01;34.39844;101248.4;;;;-76
2022/09/03 09:24:22;;;;;;;;;;;;;;;27.28;34.10547;101248.1;;;;-76
2022/09/03 09:29:18;;;;;;;;;;;;;;;27.58;33.7666;101243.7;;;;-77
2022/09/03 09:34:17;;;;;;;;;;;;;;;27.89;33.55664;101235.6;;;;-77
2022/09/03 09:39:18;;;;;;;;;;;;;;;28.16;32.99219;101231.4;;;;-77
2022/09/03 09:40:34;;;;;;;2.9;1.2;;;;;;;;;;;;;-76
2022/09/03 09:44:24;;;;;;;;;;;;;;;28.43;32.98828;101231.8;;;;-78
2022/09/03 09:49:31;;;;;;;;;;;;;;;28.72;32.58887;101227.6;;;;-76
2022/09/03 09:54:20;;;;;;;;;;;;;;;29.02;32.78613;101233.4;;;;-76
2022/09/03 09:59:18;;;;;;;;;;;;;;;29.34;32.36426;101231.3;;;;-76
2022/09/03 10:04:26;;;;;;;;;;;;;;;29.65;32.46777;101234.5;;;;-75
2022/09/03 10:09:18;;;;;;;;;;;;;;;29.9;31.73535;101232.9;;;;-74
2022/09/03 10:10:37;;;;;;;2;1.1;;;;;;;;;;;;;-74
2022/09/03 10:14:21;;;;;;;;;;;;;;;30.15;31.68262;101228.7;;;;-75
2022/09/03 10:19:19;;;;;;;;;;;;;;;30.42;31.38379;101233.5;;;;-74
2022/09/03 10:24:25;;;;;;;;;;;;;;;30.65;30.86035;101230.9;;;;-75
2022/09/03 10:29:19;;;;;;;;;;;;;;;30.84;30.37988;101226.6;;;;-75
2022/09/03 10:34:19;;;;;;;;;;;;;;;31.02;30.13281;101226;;;;-75
2022/09/03 10:39:22;;;;;;;;;;;;;;;31.14;30.06934;101225.2;;;;-74
2022/09/03 10:40:42;;;;;;;3.9;1;;;;;;;;;;;;;-75
2022/09/03 10:44:27;;;;;;;;;;;;;;;31.34;29.98828;101221.7;;;;-74
2022/09/03 10:49:25;;;;;;;;;;;;;;;31.51;30.05859;101214.7;;;;-75
2022/09/03 10:54:24;;;;;;;;;;;;;;;31.78;29.55859;101216.6;;;;-75
2022/09/03 10:59:23;;;;;;;;;;;;;;;32;29.43164;101221.8;;;;-76
2022/09/03 11:04:24;;;;;;;;;;;;;;;32.09;29.51953;101221.4;;;;-74
2022/09/03 11:09:20;;;;;;;;;;;;;;;32.21;29.66895;101214.5;;;;-75
2022/09/03 11:10:46;;;;;;;4;1.1;;;;;;;;;;;;;-75
2022/09/03 11:14:21;;;;;;;;;;;;;;;32.4;29.00879;101217.2;;;;-76
2022/09/03 11:19:19;;;;;;;;;;;;;;;32.5;29.00293;101218.1;;;;-75
2022/09/03 11:24:20;;;;;;;;;;;;;;;32.52;28.875;101216.9;;;;-75
2022/09/03 11:29:24;;;;;;;;;;;;;;;32.57;29.06738;101217.3;;;;-74
2022/09/03 11:34:28;;;;;;;;;;;;;;;32.75;28.85449;101215.3;;;;-74
2022/09/03 11:39:22;;;;;;;;;;;;;;;32.88;29.09863;101213;;;;-74
2022/09/03 11:40:59;;;;;;;2.4;1;;;;;;;;;;;;;-73
2022/09/03 11:44:35;;;;;;;;;;;;;;;32.99;28.65527;101213.8;;;;-73
2022/09/03 11:49:27;;;;;;;;;;;;;;;33.01;28.52734;101211.4;;;;-74
2022/09/03 11:54:30;;;;;;;;;;;;;;;33.02;28.3623;101211.4;;;;-74
2022/09/03 11:59:26;;;;;;;;;;;;;;;33.09;28.00098;101207.1;;;;-75
2022/09/03 12:04:20;;;;;;;;;;;;;;;33.05;28.06934;101206.8;;;;-76
2022/09/03 12:09:41;;;;;;;;;;;;;;;33.08;28.35449;101205.8;;;;-76
2022/09/03 12:10:59;;;;;;;3.1;1.3;;;;;;;;;;;;;-74
2022/09/03 12:14:23;;;;;;;;;;;;;;;33.19;27.72363;101205.6;;;;-75
2022/09/03 12:19:25;;;;;;;;;;;;;;;33.22;28.2334;101197;;;;-76
2022/09/03 12:24:17;;;;;;;;;;;;;;;33.31;28.19238;101193.7;;;;-75
2022/09/03 12:29:27;;;;;;;;;;;;;;;33.4;29.00098;101196.1;;;;-76
2022/09/03 12:34:18;;;;;;;;;;;;;;;33.57;28.35059;101196;;;;-76
2022/09/03 12:39:18;;;;;;;;;;;;;;;33.7;27.32813;101189.4;;;;-76
2022/09/03 12:40:59;;;;;;;2.6;0.9;;;;;;;;;;;;;-75
2022/09/03 12:44:17;;;;;;;;;;;;;;;33.72;27.21094;101196.2;;;;-77
2022/09/03 12:49:20;;;;;;;;;;;;;;;33.72;27.67188;101189.5;;;;-75
2022/09/03 12:54:17;;;;;;;;;;;;;;;33.79;27.51074;101190.9;;;;-75
2022/09/03 12:59:20;;;;;;;;;;;;;;;33.93;27.16406;101195.3;;;;-76
2022/09/03 13:04:19;;;;;;;;;;;;;;;34.06;26.98145;101192.8;;;;-75
2022/09/03 13:09:17;;;;;;;;;;;;;;;34.14;27.0459;101193.9;;;;-76
2022/09/03 13:11:07;;;;;;;3.5;1;;;;;;;;;;;;;-75
2022/09/03 13:14:18;;;;;;;;;;;;;;;34.19;27.07227;101187;;;;-76
2022/09/03 13:19:22;;;;;;;;;;;;;;;34.27;27.32617;101180.4;;;;-76
2022/09/03 13:24:27;;;;;;;;;;;;;;;34.37;26.92871;101180.7;;;;-74
2022/09/03 13:29:27;;;;;;;;;;;;;;;34.44;27.5498;101175.2;;;;-76
2022/09/03 13:34:19;;;;;;;;;;;;;;;34.59;26.78711;101170.2;;;;-75
2022/09/03 13:39:21;;;;;;;;;;;;;;;34.63;26.70703;101175.1;;;;-76
2022/09/03 13:41:19;;;;;;;2.9;1.2;;;;;;;;;;;;;-75
2022/09/03 13:44:19;;;;;;;;;;;;;;;34.64;26.42285;101171.2;;;;-76
2022/09/03 13:54:22;;;;;;;;;;;;;;;34.78;26.41895;101177.5;;;;-75
2022/09/03 13:59:20;;;;;;;;;;;;;;;34.79;26.92969;101170.7;;;;-75
2022/09/03 14:04:24;;;;;;;;;;;;;;;34.77;27;101169.1;;;;-75
2022/09/03 14:09:25;;;;;;;;;;;;;;;34.79;26.96582;101165.3;;;;-74
2022/09/03 14:11:23;;;;;;;2.5;1.1;;;;;;;;;;;;;-73
2022/09/03 14:14:23;;;;;;;;;;;;;;;34.89;25.92676;101165.9;;;;-75
2022/09/03 14:19:20;;;;;;;;;;;;;;;34.93;25.69141;101165.5;;;;-76
2022/09/03 14:24:19;;;;;;;;;;;;;;;34.97;26.39453;101165.4;;;;-76
2022/09/03 14:29:23;;;;;;;;;;;;;;;34.98;26.16895;101169.9;;;;-75
2022/09/03 14:34:22;;;;;;;;;;;;;;;34.96;26.57227;101167.9;;;;-75
2022/09/03 14:39:37;;;;;;;;;;;;;;;34.95;25.89453;101168;;;;-75
2022/09/03 14:41:37;;;;;;;1.4;0.9;;;;;;;;;;;;;-74
2022/09/03 14:44:34;;;;;;;;;;;;;;;34.91;25.6543;101168.3;;;;-75
2022/09/03 14:49:23;;;;;;;;;;;;;;;34.85;25.81738;101170.3;;;;-74
2022/09/03 14:54:33;;;;;;;;;;;;;;;34.8;25.69629;101168.3;;;;-75
2022/09/03 14:59:29;;;;;;;;;;;;;;;34.63;25.81641;101172;;;;-74
2022/09/03 15:04:30;;;;;;;;;;;;;;;34.06;25.38184;101173.1;;;;-74
2022/09/03 15:09:31;;;;;;;;;;;;;;;33.61;25.27344;101178.1;;;;-76
2022/09/03 15:11:27;;;;;;;3.1;1.2;;;;;;;;;;;;;-78
2022/09/03 15:14:18;;;;;;;;;;;;;;;33.46;24.875;101178.5;;;;-75
2022/09/03 15:19:22;;;;;;;;;;;;;;;33.79;24.46582;101182;;;;-76
2022/09/03 15:24:24;;;;;;;;;;;;;;;33.94;24.14258;101186.6;;;;-75
2022/09/03 15:29:22;;;;;;;;;;;;;;;33.9;24.4834;101188.5;;;;-77
2022/09/03 15:34:22;;;;;;;;;;;;;;;33.81;24.64453;101189.3;;;;-75
2022/09/03 15:39:21;;;;;;;;;;;;;;;33.72;25.0791;101188.2;;;;-75
2022/09/03 15:41:38;;;;;;;2.4;1.1;;;;;;;;;;;;;-76
2022/09/03 15:44:19;;;;;;;;;;;;;;;33.65;25.20508;101192.5;;;;-74
2022/09/03 15:49:23;;;;;;;;;;;;;;;33.53;25.35254;101189.6;;;;-76
2022/09/03 15:54:20;;;;;;;;;;;;;;;33.41;25.54688;101191.5;;;;-74
2022/09/03 15:59:20;;;;;;;;;;;;;;;33.3;25.87207;101191.3;;;;-74
2022/09/03 16:04:23;;;;;;;;;;;;;;;33.19;25.61816;101192.6;;;;-75
2022/09/03 16:09:27;;;;;;;;;;;;;;;32.98;25.59375;101192.3;;;;-76
2022/09/03 16:11:41;;;;;;;2.5;1.3;;;;;;;;;;;;;-76
2022/09/03 16:14:20;;;;;;;;;;;;;;;32.75;25.8291;101190.4;;;;-75
2022/09/03 16:19:19;;;;;;;;;;;;;;;32.54;26.06543;101197.1;;;;-75
2022/09/03 16:24:23;;;;;;;;;;;;;;;32.36;26.10254;101199.7;;;;-74
2022/09/03 16:29:19;;;;;;;;;;;;;;;32.18;26.41113;101196.9;;;;-75
2022/09/03 16:34:23;;;;;;;;;;;;;;;32;26.21094;101196.6;;;;-76
2022/09/03 16:39:24;;;;;;;;;;;;;;;31.64;26.74512;101195.1;;;;-75
2022/09/03 16:41:46;;;;;;;2.1;1.1;;;;;;;;;;;;;-73
2022/09/03 16:44:23;;;;;;;;;;;;;;;31.36;26.62207;101187.2;;;;-76
2022/09/03 16:49:22;;;;;;;;;;;;;;;31.15;26.75195;101190.3;;;;-75
2022/09/03 16:54:30;;;;;;;;;;;;;;;30.87;26.60547;101192.7;;;;-74
2022/09/03 16:59:24;;;;;;;;;;;;;;;30.6;26.93066;101189.6;;;;-75
2022/09/03 17:04:28;;;;;;;;;;;;;;;30.37;27.07031;101192;;;;-76
2022/09/03 17:09:24;;;;;;;;;;;;;;;30.14;27.47949;101192.8;;;;-75
2022/09/03 17:11:54;;;;;;;6.7;1.2;;;;;;;;;;;;;-74
2022/09/03 17:14:28;;;;;;;;;;;;;;;29.89;27.61621;101192.9;;;;-75
2022/09/03 17:19:22;;;;;;;;;;;;;;;29.66;27.64941;101193.6;;;;-74
2022/09/03 17:24:25;;;;;;;;;;;;;;;29.43;28.09277;101192.8;;;;-76
2022/09/03 17:29:28;;;;;;;;;;;;;;;29.17;28.28809;101196.2;;;;-76
2022/09/03 17:34:25;;;;;;;;;;;;;;;28.93;28.62402;101198.8;;;;-76
2022/09/03 17:39:34;;;;;;;;;;;;;;;28.63;28.69922;101204.8;;;;-74
2022/09/03 17:41:54;;;;;;;3.1;1.6;;;;;;;;;;;;;-75
2022/09/03 17:44:20;;;;;;;;;;;;;;;28.34;29.03223;101209;;;;-75
2022/09/03 17:49:21;;;;;;;;;;;;;;;28.06;29.3291;101216.1;;;;-76
2022/09/03 17:54:19;;;;;;;;;;;;;;;27.77;29.5791;101219.3;;;;-74
2022/09/03 17:59:19;;;;;;;;;;;;;;;27.48;29.80469;101226.5;;;;-73
2022/09/03 18:04:30;;;;;;;;;;;;;;;27.19;30.06543;101232.9;;;;-74
2022/09/03 18:09:27;;;;;;;;;;;;;;;26.89;30.24316;101241;;;;-75
2022/09/03 18:12:00;;;;;;;3.7;1.6;;;;;;;;;;;;;-75
2022/09/03 18:14:22;;;;;;;;;;;;;;;26.58;30.56055;101247.8;;;;-76
2022/09/03 20:12:11;;;;;;;2.9;1.6;;;;;;;;;;;;;-75
2022/09/03 20:18:54;;;;;;;;;;;;;;;22.13;38.37695;101348.5;;;;-75
2022/09/03 20:23:52;;;;;;;;;;;;;;;22.02;38.96582;101353;;;;-76
2022/09/03 20:28:59;;;;;;;;;;;;;;;21.91;38.94531;101351.2;;;;-75
2022/09/03 20:33:59;;;;;;;;;;;;;;;21.82;39.23535;101354.3;;;;-76
2022/09/03 20:38:58;;;;;;;;;;;;;;;21.74;39.32031;101357.1;;;;-77
2022/09/03 20:42:22;;;;;;;2.8;1.6;;;;;;;;;;;;;-76
2022/09/03 20:43:58;;;;;;;;;;;;;;;21.62;39.68945;101361.7;;;;-75
2022/09/03 20:48:53;;;;;;;;;;;;;;;21.54;39.83105;101363.5;;;;-75
2022/09/03 20:53:58;;;;;;;;;;;;;;;21.44;40.04102;101362.1;;;;-75
2022/09/03 20:58:55;;;;;;;;;;;;;;;21.36;40.18262;101368.5;;;;-76
2022/09/03 21:03:52;;;;;;;;;;;;;;;21.3;40.91016;101371.4;;;;-74
2022/09/03 21:09:05;;;;;;;;;;;;;;;21.22;40.86914;101369.3;;;;-75
2022/09/03 21:12:20;;;;;;;3.5;1.7;;;;;;;;;;;;;-76
2022/09/03 21:13:53;;;;;;;;;;;;;;;21.15;41.48242;101370.2;;;;-75
2022/09/03 21:18:57;;;;;;;;;;;;;;;21.11;41.74219;101370.9;;;;-75
2022/09/03 21:23:51;;;;;;;;;;;;;;;21.03;41.86133;101364.6;;;;-74
2022/09/03 21:28:59;;;;;;;;;;;;;;;20.98;42.08594;101360.6;;;;-76
2022/09/03 21:33:50;;;;;;;;;;;;;;;20.92;42.56055;101365.7;;;;-75
2022/09/03 21:38:55;;;;;;;;;;;;;;;20.86;42.45313;101369.8;;;;-77
2022/09/03 21:42:23;;;;;;;5.3;1.8;;;;;;;;;;;;;-76
2022/09/03 21:43:52;;;;;;;;;;;;;;;20.79;42.50195;101368;;;;-75
2022/09/03 21:48:51;;;;;;;;;;;;;;;20.72;42.46191;101373.6;;;;-75
2022/09/03 21:53:50;;;;;;;;;;;;;;;20.65;42.62695;101378.3;;;;-76
2022/09/03 21:59:00;;;;;;;;;;;;;;;20.57;42.83691;101382.6;;;;-75
2022/09/03 22:03:49;;;;;;;;;;;;;;;20.49;42.94336;101381.5;;;;-76
2022/09/03 22:08:52;;;;;;;;;;;;;;;20.42;42.94824;101386;;;;-75
2022/09/03 22:12:26;;;;;;;4.2;1.7;;;;;;;;;;;;;-75
2022/09/03 22:13:57;;;;;;;;;;;;;;;20.36;43.09082;101381.8;;;;-76
2022/09/03 22:18:49;;;;;;;;;;;;;;;20.29;43.19922;101388;;;;-76
2022/09/03 22:24:02;;;;;;;;;;;;;;;20.24;43.1709;101387.8;;;;-75
2022/09/03 22:28:53;;;;;;;;;;;;;;;20.18;43.9541;101384.4;;;;-75
2022/09/03 22:33:53;;;;;;;;;;;;;;;20.14;43.83594;101383.5;;;;-76
2022/09/03 22:38:58;;;;;;;;;;;;;;;20.09;43.64844;101380.6;;;;-75
2022/09/03 22:42:30;;;;;;;4;2;;;;;;;;;;;;;-74
2022/09/03 22:43:53;;;;;;;;;;;;;;;20.04;43.66699;101381.9;;;;-76
2022/09/03 22:49:00;;;;;;;;;;;;;;;20.01;43.5498;101387.3;;;;-76
2022/09/03 22:53:57;;;;;;;;;;;;;;;19.97;43.68262;101386.8;;;;-75
2022/09/03 22:58:51;;;;;;;;;;;;;;;19.88;43.61621;101390.7;;;;-74
2022/09/03 23:03:53;;;;;;;;;;;;;;;19.85;43.54395;101390.9;;;;-76
2022/09/03 23:08:51;;;;;;;;;;;;;;;19.81;43.60938;101389.6;;;;-77
2022/09/03 23:12:30;;;;;;;3.8;2.2;;;;;;;;;;;;;-76
2022/09/03 23:13:50;;;;;;;;;;;;;;;19.73;43.7041;101390.8;;;;-76
2022/09/03 23:18:50;;;;;;;;;;;;;;;19.67;43.67578;101396.8;;;;-75
2022/09/03 23:23:52;;;;;;;;;;;;;;;19.62;43.75;101401.7;;;;-75
2022/09/03 23:28:53;;;;;;;;;;;;;;;19.57;44.43066;101409.5;;;;-75
2022/09/03 23:33:51;;;;;;;;;;;;;;;19.54;43.84473;101409.5;;;;-75
2022/09/03 23:38:55;;;;;;;;;;;;;;;19.48;43.82715;101413.5;;;;-76
2022/09/03 23:42:36;;;;;;;3.5;2.1;;;;;;;;;;;;;-75
2022/09/03 23:44:01;;;;;;;;;;;;;;;19.44;43.8125;101413.5;;;;-75
2022/09/03 23:48:56;;;;;;;;;;;;;;;19.35;43.94141;101414.5;;;;-75
2022/09/03 23:53:55;;;;;;;;;;;;;;;19.3;44.12988;101415.4;;;;-77
2022/09/03 23:58:55;;;;;;;;;;;;;;;19.25;43.94238;101421.8;;;;-75
